Hoffman, North Carolina
Current Conditions -  °F | °C
As of 2:56 AM on Friday 31 Oct 2014 (Local Time) from KHFF Reporting Station
Clear Clear  
Wind Chill: 41°   Ceiling: Unl
Heat Index: 41°   Visibility: 10mi
Dew Point: 41°   Wind: 2mph
Humidity: 100%   Direction: 340°NNW
Pressure: 29.97"   Gusts: NA
Location:  35.03°N, 79.55°W
Report Text: KHFF 310656Z AUTO 34002KT 10SM CLR 05/05 A2997 RMK AO2 SLP151 T00520052
Loading
Personal Weather Stations






























Interactive Weather Map
Tropical Storm Tracking
New forecast layout! Learn more

10-Day Weather Forecast

Advertisements
Track Severe Weather on mobile